Time;durP1;ratioP1;P1;durP2;ratioP2;P2;SDS_P1;SDS_P2;PMS_P1;PMS_P2;Temp;Humidity;BMP_temperature;BMP_pressure;BME280_temperature;BME280_humidity;BME280_pressure;Samples;Min_cycle;Max_cycle;Signal;HPM_P1;HPM_P2
2022/01/18 00:00:49;;;;;;;;;;;22.20;99.90;;;;;;5092465;28;19915;-73
2022/01/18 00:03:16;;;;;;;;;;;22.20;99.90;;;;;;5094441;28;19915;-72
2022/01/18 00:05:44;;;;;;;;;;;22.20;99.90;;;;;;5094382;28;19912;-72
2022/01/18 00:08:12;;;;;;;;;;;22.10;99.90;;;;;;5094050;28;19954;-73
2022/01/18 00:10:38;;;;;;;;;;;22.10;99.90;;;;;;5093784;28;19920;-72
2022/01/18 00:15:40;;;;;;;;;;;22.00;99.90;;;;;;5094255;28;19915;-73
2022/01/18 00:18:10;;;;;;;;;;;22.00;99.90;;;;;;5094049;28;19908;-72
2022/01/18 00:21:12;;;;;;;;;;;22.00;99.90;;;;;;5093824;28;20367;-72
2022/01/18 00:23:39;;;;;;;;;;;21.90;99.90;;;;;;5093921;28;19908;-72
2022/01/18 00:26:07;;;;;;;;;;;22.00;99.90;;;;;;5093444;28;19998;-71
2022/01/18 00:28:36;;;;;;;;;;;22.10;99.90;;;;;;5093917;28;19972;-73
2022/01/18 00:36:35;;;;;;;;;;;21.90;99.90;;;;;;5093508;28;19908;-72
2022/01/18 00:39:02;;;;;;;;;;;21.90;99.90;;;;;;5093491;28;19930;-72
2022/01/18 00:41:29;;;;;;;;;;;21.90;99.90;;;;;;5093474;28;19947;-72
2022/01/18 00:43:56;;;;;;;;;;;21.90;99.90;;;;;;5092573;28;20350;-72
2022/01/18 00:46:23;;;;;;;;;;;22.00;99.90;;;;;;5093384;28;20351;-72
2022/01/18 00:48:52;;;;;;;;;;;21.90;99.90;;;;;;5093287;28;20027;-73
2022/01/18 00:51:19;;;;;;;;;;;21.90;99.90;;;;;;5093237;28;19916;-72
2022/01/18 00:53:46;;;;;;;;;;;22.10;99.90;;;;;;5092960;28;19951;-72
2022/01/18 00:58:41;;;;;;;;;;;22.20;99.90;;;;;;5093416;28;20370;-73
2022/01/18 01:01:08;;;;;;;;;;;22.10;99.90;;;;;;5093428;28;20332;-73
2022/01/18 01:03:35;;;;;;;;;;;22.10;99.90;;;;;;5093384;28;20006;-73
2022/01/18 01:06:02;;;;;;;;;;;22.20;99.90;;;;;;5093089;28;19915;-73
2022/01/18 01:08:29;;;;;;;;;;;22.30;99.90;;;;;;5093399;28;19951;-73
2022/01/18 01:10:56;;;;;;;;;;;22.30;99.90;;;;;;5092265;28;19924;-73
2022/01/18 01:13:23;;;;;;;;;;;22.40;99.90;;;;;;5092902;28;19912;-73
2022/01/18 01:16:11;;;;;;;;;;;22.40;99.90;;;;;;5092715;28;19931;-73
2022/01/18 01:34:51;;;;;;;;;;;22.60;99.90;;;;;;5092903;28;19908;-73
2022/01/18 01:45:25;;;;;;;;;;;22.70;99.90;;;;;;5092832;28;20319;-74
2022/01/18 01:47:53;;;;;;;;;;;22.60;99.90;;;;;;5092381;28;19916;-73
2022/01/18 01:50:21;;;;;;;;;;;22.60;99.90;;;;;;5092484;28;19916;-71
2022/01/18 01:52:49;;;;;;;;;;;22.60;99.90;;;;;;5092411;28;19934;-72
2022/01/18 01:55:17;;;;;;;;;;;22.60;99.90;;;;;;5092231;28;19961;-72
2022/01/18 01:57:43;;;;;;;;;;;22.60;99.90;;;;;;5092669;28;20401;-71
2022/01/18 02:00:12;;;;;;;;;;;22.60;99.90;;;;;;5092417;28;20003;-72
2022/01/18 02:02:39;;;;;;;;;;;22.60;99.90;;;;;;5092506;28;19914;-72
2022/01/18 02:05:06;;;;;;;;;;;22.70;99.90;;;;;;5092652;28;20674;-72
2022/01/18 02:07:33;;;;;;;;;;;22.60;99.90;;;;;;5092514;28;19955;-72
2022/01/18 02:09:59;;;;;;;;;;;22.70;99.90;;;;;;5091682;28;19994;-72
2022/01/18 02:12:26;;;;;;;;;;;22.60;99.90;;;;;;5092369;28;19931;-71
2022/01/18 02:14:58;;;;;;;;;;;22.70;99.90;;;;;;5092259;28;20350;-72
2022/01/18 02:22:57;;;;;;;;;;;22.50;99.90;;;;;;5080327;28;19939;-72
2022/01/18 02:25:24;;;;;;;;;;;22.60;99.90;;;;;;5091877;28;19919;-72
2022/01/18 02:27:51;;;;;;;;;;;22.60;99.90;;;;;;5092022;28;19912;-72
2022/01/18 02:30:17;;;;;;;;;;;22.60;99.90;;;;;;5091102;28;20395;-72
2022/01/18 02:32:44;;;;;;;;;;;22.60;99.90;;;;;;5092264;28;20274;-72
2022/01/18 02:35:11;;;;;;;;;;;22.60;99.90;;;;;;5092140;28;19966;-73
2022/01/18 02:37:40;;;;;;;;;;;22.40;99.90;;;;;;5092047;28;20518;-71
2022/01/18 02:40:07;;;;;;;;;;;22.30;99.90;;;;;;5091796;28;19919;-71
2022/01/18 02:42:43;;;;;;;;;;;22.20;99.90;;;;;;5092263;28;19908;-72
2022/01/18 02:45:10;;;;;;;;;;;22.10;99.90;;;;;;5092061;28;20354;-72
2022/01/18 02:47:36;;;;;;;;;;;22.10;99.90;;;;;;5090700;28;20373;-72
2022/01/18 02:50:03;;;;;;;;;;;22.10;99.90;;;;;;5091797;28;19955;-73
2022/01/18 02:52:30;;;;;;;;;;;22.00;99.90;;;;;;5091962;28;20265;-73
2022/01/18 02:54:57;;;;;;;;;;;22.00;99.90;;;;;;5091861;28;19914;-72
2022/01/18 02:57:26;;;;;;;;;;;21.80;99.90;;;;;;5091916;28;20008;-72
2022/01/18 03:00:14;;;;;;;;;;;21.80;99.90;;;;;;5091767;28;19916;-73
2022/01/18 03:05:25;;;;;;;;;;;21.80;99.90;;;;;;5092615;28;19915;-72
2022/01/18 03:07:52;;;;;;;;;;;21.80;99.90;;;;;;5095610;28;19908;-73
2022/01/18 03:10:19;;;;;;;;;;;21.80;99.90;;;;;;5095145;28;19959;-72
2022/01/18 03:12:45;;;;;;;;;;;21.80;99.90;;;;;;5095600;28;20370;-72
2022/01/18 03:15:12;;;;;;;;;;;21.70;99.90;;;;;;5095441;28;19918;-73
2022/01/18 03:17:39;;;;;;;;;;;21.70;99.90;;;;;;5095420;28;19912;-73
2022/01/18 03:20:10;;;;;;;;;;;21.70;99.90;;;;;;5095095;28;19912;-73
2022/01/18 03:22:37;;;;;;;;;;;21.70;99.90;;;;;;5095347;28;19908;-73
2022/01/18 03:25:25;;;;;;;;;;;21.70;99.90;;;;;;5095119;28;20010;-73
2022/01/18 03:28:05;;;;;;;;;;;21.70;99.90;;;;;;5094980;28;19908;-72
2022/01/18 03:30:33;;;;;;;;;;;21.60;99.90;;;;;;5095384;28;19916;-72
2022/01/18 03:33:00;;;;;;;;;;;21.60;99.90;;;;;;5095364;28;20370;-72
2022/01/18 03:35:27;;;;;;;;;;;21.60;99.90;;;;;;5095331;28;19912;-73
2022/01/18 03:37:53;;;;;;;;;;;21.70;99.90;;;;;;5094907;28;19908;-73
2022/01/18 03:40:20;;;;;;;;;;;21.60;99.90;;;;;;5094892;28;19908;-73
2022/01/18 03:42:48;;;;;;;;;;;21.60;99.90;;;;;;5094965;28;19908;-74
2022/01/18 03:45:16;;;;;;;;;;;21.50;99.90;;;;;;5094787;28;19931;-74
2022/01/18 03:47:45;;;;;;;;;;;21.60;99.90;;;;;;5094756;28;19916;-73
2022/01/18 03:50:12;;;;;;;;;;;21.50;99.90;;;;;;5094910;28;19952;-72
2022/01/18 03:52:40;;;;;;;;;;;21.50;99.90;;;;;;5094708;28;19977;-73
2022/01/18 03:55:08;;;;;;;;;;;21.60;99.90;;;;;;5094791;28;19994;-72
2022/01/18 03:57:34;;;;;;;;;;;21.60;99.90;;;;;;5094986;28;19962;-72
2022/01/18 04:00:01;;;;;;;;;;;21.60;99.90;;;;;;5094783;28;19960;-72
2022/01/18 04:02:28;;;;;;;;;;;21.60;99.90;;;;;;5094702;28;19908;-72
2022/01/18 04:04:55;;;;;;;;;;;21.50;99.90;;;;;;5094785;28;19908;-73
2022/01/18 04:07:21;;;;;;;;;;;21.50;99.90;;;;;;5094607;28;19908;-72
2022/01/18 04:09:48;;;;;;;;;;;21.40;99.90;;;;;;5094021;28;20328;-72
2022/01/18 04:12:14;;;;;;;;;;;21.40;99.90;;;;;;5094701;28;20514;-73
2022/01/18 04:14:42;;;;;;;;;;;21.40;99.90;;;;;;5094831;28;19912;-72
2022/01/18 04:17:34;;;;;;;;;;;21.40;99.90;;;;;;5093317;28;20374;-73
2022/01/18 04:28:28;;;;;;;;;;;21.30;99.90;;;;;;5094519;28;20266;-72
2022/01/18 04:30:54;;;;;;;;;;;21.30;99.90;;;;;;5094157;28;20014;-73
2022/01/18 04:33:21;;;;;;;;;;;21.20;99.90;;;;;;5094149;28;19908;-73
2022/01/18 04:35:48;;;;;;;;;;;21.30;99.90;;;;;;5092448;28;19908;-72
2022/01/18 04:38:15;;;;;;;;;;;21.20;99.90;;;;;;5093868;28;19991;-73
2022/01/18 04:40:44;;;;;;;;;;;21.10;99.90;;;;;;5094047;28;19908;-72
2022/01/18 04:43:38;;;;;;;;;;;21.20;99.90;;;;;;5093884;28;19939;-73
2022/01/18 04:48:50;;;;;;;;;;;21.20;99.90;;;;;;5093819;28;19915;-72
2022/01/18 04:51:17;;;;;;;;;;;21.20;99.90;;;;;;5093500;28;19923;-72
2022/01/18 04:53:50;;;;;;;;;;;21.20;99.90;;;;;;5093608;28;19909;-72
2022/01/18 04:56:19;;;;;;;;;;;21.30;99.90;;;;;;5093683;28;20387;-73
2022/01/18 04:58:46;;;;;;;;;;;21.30;99.90;;;;;;5093512;28;20391;-73
2022/01/18 05:01:22;;;;;;;;;;;21.30;99.90;;;;;;5093820;28;19908;-73
2022/01/18 05:03:49;;;;;;;;;;;21.20;99.90;;;;;;5093255;28;19998;-73
2022/01/18 05:06:17;;;;;;;;;;;21.30;99.90;;;;;;5093542;28;20410;-73
2022/01/18 05:08:44;;;;;;;;;;;21.30;99.90;;;;;;5093312;28;20424;-73
2022/01/18 05:11:14;;;;;;;;;;;21.20;99.90;;;;;;5093134;28;19920;-72
2022/01/18 05:24:20;;;;;;;;;;;21.10;99.90;;;;;;5093278;28;19915;-73
2022/01/18 05:26:46;;;;;;;;;;;21.10;99.90;;;;;;5093317;28;20389;-72
2022/01/18 05:29:13;;;;;;;;;;;21.10;99.90;;;;;;5092965;28;20274;-72
2022/01/18 05:31:40;;;;;;;;;;;21.10;99.90;;;;;;5093008;28;20339;-73
2022/01/18 05:34:06;;;;;;;;;;;21.10;99.90;;;;;;5092644;28;19908;-72
2022/01/18 05:36:33;;;;;;;;;;;21.10;99.90;;;;;;5093146;28;19912;-73
2022/01/18 05:39:00;;;;;;;;;;;21.10;99.90;;;;;;5092923;28;19908;-72
2022/01/18 05:41:26;;;;;;;;;;;21.10;99.90;;;;;;5093175;28;19908;-72
2022/01/18 05:43:53;;;;;;;;;;;21.10;99.90;;;;;;5092858;28;19908;-72
2022/01/18 05:46:20;;;;;;;;;;;21.10;99.90;;;;;;5093206;28;20239;-72
2022/01/18 05:48:46;;;;;;;;;;;21.10;99.90;;;;;;5093037;28;19920;-73
2022/01/18 05:51:13;;;;;;;;;;;21.10;99.90;;;;;;5091701;28;20039;-72
2022/01/18 05:53:41;;;;;;;;;;;21.10;99.90;;;;;;5090898;28;19927;-73
2022/01/18 05:56:11;;;;;;;;;;;21.10;99.90;;;;;;5090578;28;19912;-73
2022/01/18 05:58:45;;;;;;;;;;;21.10;99.90;;;;;;5090839;28;19920;-73
2022/01/18 06:01:14;;;;;;;;;;;21.00;99.90;;;;;;5090951;28;20340;-72
2022/01/18 06:09:04;;;;;;;;;;;21.10;99.90;;;;;;5071492;28;19919;-72
2022/01/18 06:11:30;;;;;;;;;;;21.00;99.90;;;;;;5069833;28;20011;-73
2022/01/18 06:13:57;;;;;;;;;;;20.90;99.90;;;;;;5070613;28;19947;-73
2022/01/18 06:16:24;;;;;;;;;;;20.90;99.90;;;;;;5070946;28;19909;-73
2022/01/18 06:18:50;;;;;;;;;;;21.00;99.90;;;;;;5069958;28;19912;-73
2022/01/18 06:21:17;;;;;;;;;;;20.90;99.90;;;;;;5070558;28;19970;-72
2022/01/18 06:23:43;;;;;;;;;;;20.90;99.90;;;;;;5070271;28;19909;-72
2022/01/18 06:26:15;;;;;;;;;;;20.90;99.90;;;;;;5073405;28;20386;-72
2022/01/18 06:28:42;;;;;;;;;;;20.90;99.90;;;;;;5072740;28;20339;-72
2022/01/18 06:31:09;;;;;;;;;;;20.90;99.90;;;;;;5070071;28;19920;-72
2022/01/18 06:33:35;;;;;;;;;;;20.80;99.90;;;;;;5069912;28;19967;-72
2022/01/18 06:36:02;;;;;;;;;;;20.90;99.90;;;;;;5069998;28;20011;-73
2022/01/18 06:38:29;;;;;;;;;;;20.90;99.90;;;;;;5070144;28;20688;-72
2022/01/18 06:40:56;;;;;;;;;;;20.80;99.90;;;;;;5071326;28;19909;-72
2022/01/18 06:43:22;;;;;;;;;;;20.90;99.90;;;;;;5073995;28;19916;-73
2022/01/18 07:39:22;;;;;;;;;;;20.90;99.90;;;;;;5128963;27;20262;-73
2022/01/18 07:41:48;;;;;;;;;;;21.00;99.90;;;;;;5128678;28;19920;-73
2022/01/18 07:44:15;;;;;;;;;;;21.10;99.90;;;;;;5128866;28;20230;-73
2022/01/18 07:46:42;;;;;;;;;;;21.00;99.90;;;;;;5129045;28;19911;-73
2022/01/18 07:49:08;;;;;;;;;;;21.00;99.90;;;;;;5127961;28;19920;-73
2022/01/18 07:51:35;;;;;;;;;;;21.00;99.90;;;;;;5128280;28;19912;-73
2022/01/18 07:54:02;;;;;;;;;;;20.90;99.90;;;;;;5128263;28;19916;-73
2022/01/18 07:56:28;;;;;;;;;;;20.90;99.90;;;;;;5128668;28;19912;-73
2022/01/18 07:58:55;;;;;;;;;;;20.90;99.90;;;;;;5128614;28;19920;-73
2022/01/18 08:01:22;;;;;;;;;;;21.00;99.90;;;;;;5128666;28;19915;-73
2022/01/18 08:03:48;;;;;;;;;;;21.00;99.90;;;;;;5127966;28;19907;-73
2022/01/18 08:06:15;;;;;;;;;;;20.90;99.90;;;;;;5129716;28;19907;-74
2022/01/18 08:08:42;;;;;;;;;;;21.00;99.90;;;;;;5130248;28;20318;-73
2022/01/18 08:11:09;;;;;;;;;;;20.90;99.90;;;;;;5130491;28;20777;-73
2022/01/18 08:13:44;;;;;;;;;;;20.90;99.90;;;;;;5130447;28;19957;-73
2022/01/18 08:16:33;;;;;;;;;;;21.00;99.90;;;;;;5130186;28;19912;-73
2022/01/18 08:18:58;;;;;;;;;;;21.00;99.90;;;;;;5129997;27;20281;-73
2022/01/18 08:21:25;;;;;;;;;;;20.90;99.90;;;;;;5129909;28;20384;-73
2022/01/18 08:23:52;;;;;;;;;;;20.90;99.90;;;;;;5129797;28;19912;-73
2022/01/18 08:26:19;;;;;;;;;;;20.90;99.90;;;;;;5130200;28;19958;-73
2022/01/18 08:28:46;;;;;;;;;;;20.90;99.90;;;;;;5130168;28;20002;-73
2022/01/18 08:31:13;;;;;;;;;;;20.90;99.90;;;;;;5129888;28;19914;-73
2022/01/18 08:33:39;;;;;;;;;;;20.90;99.90;;;;;;5129645;28;20044;-73
2022/01/18 08:36:07;;;;;;;;;;;20.90;99.90;;;;;;5129514;28;19918;-73
2022/01/18 08:38:34;;;;;;;;;;;20.90;99.90;;;;;;5129390;28;20048;-73
2022/01/18 08:41:01;;;;;;;;;;;21.00;99.90;;;;;;5129731;28;20014;-73
2022/01/18 08:43:31;;;;;;;;;;;20.90;99.90;;;;;;5129539;28;19908;-73
2022/01/18 08:46:01;;;;;;;;;;;20.90;99.90;;;;;;5129504;28;20269;-73
2022/01/18 08:48:28;;;;;;;;;;;20.90;99.90;;;;;;5129083;28;19907;-73
2022/01/18 08:50:54;;;;;;;;;;;20.90;99.90;;;;;;5115640;28;20315;-73
2022/01/18 08:53:21;;;;;;;;;;;20.90;99.90;;;;;;5115899;28;19933;-73
2022/01/18 08:55:48;;;;;;;;;;;20.90;99.90;;;;;;5115723;28;20018;-73
2022/01/18 08:58:15;;;;;;;;;;;20.80;99.90;;;;;;5115624;28;20362;-73
2022/01/18 09:00:41;;;;;;;;;;;20.80;99.90;;;;;;5097472;28;19919;-73
2022/01/18 09:03:09;;;;;;;;;;;20.80;99.90;;;;;;5115798;28;19908;-73
2022/01/18 09:05:38;;;;;;;;;;;20.90;99.90;;;;;;5115416;28;20278;-73
2022/01/18 09:08:07;;;;;;;;;;;20.80;99.90;;;;;;5115203;28;19908;-73
2022/01/18 09:10:34;;;;;;;;;;;20.80;99.90;;;;;;5115441;28;19907;-73
2022/01/18 09:13:01;;;;;;;;;;;20.70;99.90;;;;;;5097057;28;19988;-73
2022/01/18 09:15:27;;;;;;;;;;;20.80;99.90;;;;;;5115397;28;20277;-73
2022/01/18 09:17:54;;;;;;;;;;;20.70;99.90;;;;;;5115342;28;19912;-73
2022/01/18 09:20:23;;;;;;;;;;;20.70;99.90;;;;;;5115373;28;19915;-73
2022/01/18 09:22:50;;;;;;;;;;;20.70;99.90;;;;;;5115141;28;19915;-73
2022/01/18 09:25:17;;;;;;;;;;;20.70;99.90;;;;;;5115046;28;20003;-73
2022/01/18 09:27:44;;;;;;;;;;;20.70;99.90;;;;;;5115389;28;20102;-73
2022/01/18 09:30:12;;;;;;;;;;;20.70;99.90;;;;;;5115034;28;19947;-73
2022/01/18 09:32:39;;;;;;;;;;;20.60;99.90;;;;;;5115157;28;20361;-73
2022/01/18 09:35:09;;;;;;;;;;;20.60;99.90;;;;;;5114543;28;19954;-73
2022/01/18 09:37:36;;;;;;;;;;;20.60;99.90;;;;;;5114626;28;20018;-73
2022/01/18 09:40:04;;;;;;;;;;;20.60;99.90;;;;;;5114966;28;19911;-73
2022/01/18 09:42:36;;;;;;;;;;;20.60;99.90;;;;;;5115061;28;19915;-73
2022/01/18 09:45:07;;;;;;;;;;;20.60;99.90;;;;;;5115033;28;19907;-73
2022/01/18 09:47:34;;;;;;;;;;;20.50;99.90;;;;;;5115120;28;19953;-73
2022/01/18 09:50:01;;;;;;;;;;;20.60;99.90;;;;;;5114791;28;19908;-73
2022/01/18 09:52:28;;;;;;;;;;;20.60;99.90;;;;;;5114576;28;19914;-73
2022/01/18 09:54:54;;;;;;;;;;;20.60;99.90;;;;;;5114532;28;20007;-73
2022/01/18 09:57:21;;;;;;;;;;;20.60;99.90;;;;;;5098403;28;20259;-73
2022/01/18 09:59:48;;;;;;;;;;;20.50;99.90;;;;;;5093296;28;20286;-74
2022/01/18 10:02:14;;;;;;;;;;;20.50;99.90;;;;;;5108614;28;20346;-73
2022/01/18 10:04:42;;;;;;;;;;;20.50;99.90;;;;;;5094016;28;19943;-73
2022/01/18 10:07:09;;;;;;;;;;;20.50;99.90;;;;;;5094075;28;19995;-74
2022/01/18 10:09:37;;;;;;;;;;;20.40;99.90;;;;;;5094154;28;19908;-73
2022/01/18 10:12:10;;;;;;;;;;;20.40;99.90;;;;;;5093229;28;19908;-73
2022/01/18 10:14:38;;;;;;;;;;;20.40;99.90;;;;;;5093980;28;19931;-73
2022/01/18 10:17:06;;;;;;;;;;;20.40;99.90;;;;;;5093526;28;20395;-73
2022/01/18 10:19:50;;;;;;;;;;;20.40;99.90;;;;;;5093362;28;19908;-74
2022/01/18 10:22:21;;;;;;;;;;;20.30;99.90;;;;;;5092776;28;19922;-75
2022/01/18 10:24:47;;;;;;;;;;;20.40;99.90;;;;;;5093460;28;19908;-74
2022/01/18 10:27:14;;;;;;;;;;;20.30;99.90;;;;;;5091995;28;19915;-74
2022/01/18 10:29:46;;;;;;;;;;;20.30;99.90;;;;;;5093127;28;20366;-73
2022/01/18 10:32:25;;;;;;;;;;;20.30;99.90;;;;;;5093537;28;20360;-74
2022/01/18 10:37:21;;;;;;;;;;;20.30;99.90;;;;;;5092950;28;19920;-74
2022/01/18 10:39:49;;;;;;;;;;;20.20;99.90;;;;;;5093216;28;19948;-74
2022/01/18 10:42:18;;;;;;;;;;;20.30;99.90;;;;;;5092583;28;19908;-74
2022/01/18 10:44:46;;;;;;;;;;;20.30;99.90;;;;;;5093276;28;19920;-74
2022/01/18 10:47:13;;;;;;;;;;;20.30;99.90;;;;;;5093089;28;19947;-73
2022/01/18 10:49:47;;;;;;;;;;;20.20;99.90;;;;;;5092944;28;19908;-75
2022/01/18 10:52:18;;;;;;;;;;;20.30;99.90;;;;;;5093152;28;19908;-73
2022/01/18 10:54:48;;;;;;;;;;;20.30;99.90;;;;;;5093142;28;20362;-74
2022/01/18 10:57:18;;;;;;;;;;;20.30;99.90;;;;;;5092504;28;19915;-74
2022/01/18 10:59:45;;;;;;;;;;;20.20;99.90;;;;;;5093077;28;19952;-74
2022/01/18 11:02:19;;;;;;;;;;;20.20;99.90;;;;;;5092770;28;19916;-73
2022/01/18 11:04:50;;;;;;;;;;;20.20;99.90;;;;;;5092967;28;19918;-73
2022/01/18 11:07:18;;;;;;;;;;;20.20;99.90;;;;;;5092689;28;19908;-74
2022/01/18 11:09:45;;;;;;;;;;;20.20;99.90;;;;;;5092665;28;19977;-74
2022/01/18 11:12:12;;;;;;;;;;;20.20;99.90;;;;;;5091822;28;19916;-72
2022/01/18 11:14:43;;;;;;;;;;;20.10;99.90;;;;;;5092489;28;19908;-74
2022/01/18 11:17:11;;;;;;;;;;;20.10;99.90;;;;;;5092522;28;19909;-74
2022/01/18 11:19:39;;;;;;;;;;;20.20;99.90;;;;;;5092550;28;19943;-75
2022/01/18 11:22:07;;;;;;;;;;;20.20;99.90;;;;;;5092148;28;20013;-74
2022/01/18 11:24:35;;;;;;;;;;;20.10;99.90;;;;;;5092736;28;19908;-73
2022/01/18 11:27:07;;;;;;;;;;;20.10;99.90;;;;;;5092023;28;20061;-73
2022/01/18 11:29:37;;;;;;;;;;;20.10;99.90;;;;;;5092591;28;20329;-73
2022/01/18 11:32:04;;;;;;;;;;;20.10;99.90;;;;;;5092199;28;19908;-73
2022/01/18 11:34:30;;;;;;;;;;;20.00;99.90;;;;;;5092126;28;20282;-73
2022/01/18 11:37:07;;;;;;;;;;;20.00;99.90;;;;;;5092325;28;19984;-74
2022/01/18 11:39:34;;;;;;;;;;;20.00;99.90;;;;;;5092579;28;19916;-74
2022/01/18 11:42:13;;;;;;;;;;;20.00;99.90;;;;;;5091614;28;19908;-74
2022/01/18 11:44:40;;;;;;;;;;;20.00;99.90;;;;;;5092433;28;19916;-73
2022/01/18 11:47:08;;;;;;;;;;;20.00;99.90;;;;;;5092430;28;19916;-73
2022/01/18 11:49:36;;;;;;;;;;;20.10;99.90;;;;;;5092258;28;20364;-73
2022/01/18 11:52:05;;;;;;;;;;;20.10;99.90;;;;;;5091870;28;19908;-73
2022/01/18 11:54:56;;;;;;;;;;;20.10;99.90;;;;;;5092378;28;19912;-73
2022/01/18 11:57:23;;;;;;;;;;;20.00;99.90;;;;;;5091773;28;19912;-73
2022/01/18 11:59:58;;;;;;;;;;;20.00;99.90;;;;;;5092154;28;19947;-73
2022/01/18 12:02:30;;;;;;;;;;;20.00;99.90;;;;;;5092474;28;19908;-73
2022/01/18 12:05:05;;;;;;;;;;;20.10;99.90;;;;;;5092283;28;19908;-73
2022/01/18 12:07:38;;;;;;;;;;;20.00;99.90;;;;;;5092201;28;19918;-72
2022/01/18 12:10:08;;;;;;;;;;;20.00;99.90;;;;;;5091951;28;20022;-73
2022/01/18 12:12:46;;;;;;;;;;;20.10;99.90;;;;;;5092455;28;19908;-73
2022/01/18 12:15:16;;;;;;;;;;;20.10;99.90;;;;;;5092222;28;20361;-72
2022/01/18 12:17:53;;;;;;;;;;;20.10;99.90;;;;;;5092203;28;19961;-72
2022/01/18 12:20:40;;;;;;;;;;;20.10;99.90;;;;;;5092188;28;20316;-73
2022/01/18 12:23:10;;;;;;;;;;;20.20;99.90;;;;;;5092200;28;20005;-74
2022/01/18 12:25:40;;;;;;;;;;;20.20;99.90;;;;;;5094496;28;19952;-73
2022/01/18 12:28:32;;;;;;;;;;;20.10;99.90;;;;;;5095511;28;20003;-73
2022/01/18 12:31:07;;;;;;;;;;;20.10;99.90;;;;;;5096141;28;20003;-72
2022/01/18 12:33:46;;;;;;;;;;;20.10;99.90;;;;;;5096086;28;19908;-72
2022/01/18 12:36:31;;;;;;;;;;;20.10;99.90;;;;;;5095530;28;19909;-72
2022/01/18 12:39:03;;;;;;;;;;;20.20;99.90;;;;;;5095634;28;19931;-72
2022/01/18 12:41:39;;;;;;;;;;;20.10;99.90;;;;;;5095811;28;20281;-72
2022/01/18 12:44:21;;;;;;;;;;;20.20;99.90;;;;;;5095692;28;20277;-73
2022/01/18 12:46:54;;;;;;;;;;;20.20;99.90;;;;;;5095801;28;19908;-72
2022/01/18 12:49:22;;;;;;;;;;;20.10;99.90;;;;;;5095631;28;19915;-72
2022/01/18 12:51:55;;;;;;;;;;;20.20;99.90;;;;;;5095175;28;20290;-73
2022/01/18 12:54:33;;;;;;;;;;;20.20;99.90;;;;;;5095528;28;19912;-73
2022/01/18 12:57:13;;;;;;;;;;;20.20;99.90;;;;;;5095517;28;20413;-72
2022/01/18 12:59:58;;;;;;;;;;;20.20;99.90;;;;;;5095451;28;19916;-72
2022/01/18 13:02:26;;;;;;;;;;;20.20;99.90;;;;;;5095358;28;19991;-72
2022/01/18 13:04:57;;;;;;;;;;;20.20;99.90;;;;;;5095447;28;19912;-72
2022/01/18 13:07:24;;;;;;;;;;;20.20;99.90;;;;;;5095167;28;19909;-72
2022/01/18 13:10:08;;;;;;;;;;;20.20;99.90;;;;;;5095073;28;19996;-72
2022/01/18 13:12:36;;;;;;;;;;;20.30;99.90;;;;;;5095175;28;19908;-72
2022/01/18 13:15:05;;;;;;;;;;;20.20;99.90;;;;;;5095103;28;19961;-72
2022/01/18 13:23:34;;;;;;;;;;;20.20;99.90;;;;;;5095337;28;20352;-72
2022/01/18 13:26:02;;;;;;;;;;;20.20;99.90;;;;;;5094888;28;19968;-72
2022/01/18 13:28:35;;;;;;;;;;;20.30;99.90;;;;;;5094743;28;19912;-72
2022/01/18 13:31:22;;;;;;;;;;;20.20;99.90;;;;;;5094645;28;19912;-72
2022/01/18 13:33:49;;;;;;;;;;;20.20;99.90;;;;;;5094389;28;20342;-72
2022/01/18 13:36:15;;;;;;;;;;;20.30;99.90;;;;;;5094575;28;19944;-72
2022/01/18 13:38:42;;;;;;;;;;;20.30;99.90;;;;;;5094679;28;19923;-71
2022/01/18 13:41:09;;;;;;;;;;;20.30;99.90;;;;;;5094668;28;20277;-71
2022/01/18 13:43:36;;;;;;;;;;;20.40;99.90;;;;;;5094576;28;20000;-72
2022/01/18 13:46:02;;;;;;;;;;;20.40;99.90;;;;;;5094290;28;19998;-72
2022/01/18 13:48:33;;;;;;;;;;;20.40;99.90;;;;;;5094481;28;19908;-72
2022/01/18 13:51:14;;;;;;;;;;;20.50;99.90;;;;;;5094025;28;19914;-72
2022/01/18 13:53:41;;;;;;;;;;;20.50;99.90;;;;;;5094327;28;20315;-72
2022/01/18 13:56:12;;;;;;;;;;;20.50;99.90;;;;;;5094162;28;19908;-72
2022/01/18 13:58:42;;;;;;;;;;;20.50;99.90;;;;;;5094252;28;20419;-72
2022/01/18 14:01:17;;;;;;;;;;;20.60;99.90;;;;;;5094210;28;19978;-72
2022/01/18 14:03:44;;;;;;;;;;;20.60;99.90;;;;;;5094152;28;20281;-72
2022/01/18 14:06:12;;;;;;;;;;;20.60;99.90;;;;;;5094044;28;20389;-71
2022/01/18 14:08:41;;;;;;;;;;;20.60;99.90;;;;;;5094075;28;19974;-71
2022/01/18 14:11:09;;;;;;;;;;;20.60;99.90;;;;;;5094044;28;19962;-71
2022/01/18 14:13:37;;;;;;;;;;;20.60;99.90;;;;;;5094018;28;19915;-72
2022/01/18 14:16:24;;;;;;;;;;;20.60;99.90;;;;;;5093720;28;19908;-72
2022/01/18 14:18:54;;;;;;;;;;;20.70;99.90;;;;;;5068732;28;19916;-71
2022/01/18 14:21:24;;;;;;;;;;;20.60;99.90;;;;;;5093826;28;19908;-72
2022/01/18 14:24:05;;;;;;;;;;;20.60;99.90;;;;;;5093781;28;19931;-73
2022/01/18 14:26:32;;;;;;;;;;;20.70;99.90;;;;;;5093776;28;19912;-71
2022/01/18 14:29:03;;;;;;;;;;;20.70;99.90;;;;;;5093645;28;19954;-71
2022/01/18 14:31:29;;;;;;;;;;;20.70;99.90;;;;;;5093538;28;19937;-71
2022/01/18 14:33:56;;;;;;;;;;;20.70;99.90;;;;;;5093342;28;19908;-71
2022/01/18 14:36:23;;;;;;;;;;;20.70;99.90;;;;;;5093492;28;20392;-71
2022/01/18 14:39:03;;;;;;;;;;;20.70;99.90;;;;;;5093277;28;19920;-71
2022/01/18 14:41:30;;;;;;;;;;;20.70;99.90;;;;;;5093492;28;19908;-71
2022/01/18 14:44:03;;;;;;;;;;;20.70;99.90;;;;;;5093121;28;20003;-71
2022/01/18 14:49:16;;;;;;;;;;;20.70;99.90;;;;;;5071663;28;19952;-71
2022/01/18 14:51:43;;;;;;;;;;;20.70;99.90;;;;;;5093182;28;19985;-71
2022/01/18 14:54:10;;;;;;;;;;;20.70;99.90;;;;;;5093181;28;19940;-71
2022/01/18 14:56:36;;;;;;;;;;;20.70;99.90;;;;;;5093149;28;19912;-71
2022/01/18 14:59:03;;;;;;;;;;;20.70;99.90;;;;;;5093170;28;19941;-72
2022/01/18 15:01:29;;;;;;;;;;;20.70;99.90;;;;;;5093329;28;20378;-72
2022/01/18 15:03:56;;;;;;;;;;;20.70;99.90;;;;;;5093145;28;20007;-72
2022/01/18 15:06:23;;;;;;;;;;;20.70;99.90;;;;;;5092999;28;19909;-72
2022/01/18 15:08:49;;;;;;;;;;;20.70;99.90;;;;;;5092871;28;19908;-72
2022/01/18 15:11:16;;;;;;;;;;;20.70;99.90;;;;;;5092872;28;19919;-71
2022/01/18 15:13:43;;;;;;;;;;;20.70;99.90;;;;;;5093126;28;19908;-71
2022/01/18 15:16:09;;;;;;;;;;;20.70;99.90;;;;;;5092534;28;19995;-72
2022/01/18 15:18:36;;;;;;;;;;;20.70;99.90;;;;;;5092793;28;19922;-72
2022/01/18 15:21:02;;;;;;;;;;;20.70;99.90;;;;;;5092947;28;19908;-71
2022/01/18 15:23:29;;;;;;;;;;;20.60;99.90;;;;;;5092904;28;20339;-71
2022/01/18 15:25:56;;;;;;;;;;;20.60;99.90;;;;;;5092614;28;19914;-73
2022/01/18 15:28:23;;;;;;;;;;;20.70;99.90;;;;;;5092763;28;20545;-71
2022/01/18 15:30:50;;;;;;;;;;;20.70;99.90;;;;;;5092727;28;19908;-71
2022/01/18 15:33:16;;;;;;;;;;;20.70;99.90;;;;;;5092833;28;19909;-72
2022/01/18 15:35:43;;;;;;;;;;;20.60;99.90;;;;;;5092526;28;19908;-72
2022/01/18 15:38:09;;;;;;;;;;;20.60;99.90;;;;;;5091962;28;19926;-71
2022/01/18 15:40:36;;;;;;;;;;;20.60;99.90;;;;;;5092868;28;19908;-72
2022/01/18 15:43:03;;;;;;;;;;;20.70;99.90;;;;;;5092690;28;19943;-72
2022/01/18 15:45:30;;;;;;;;;;;20.60;99.90;;;;;;5092610;28;20019;-72
2022/01/18 15:47:56;;;;;;;;;;;20.60;99.90;;;;;;5092389;28;20389;-72
2022/01/18 15:50:23;;;;;;;;;;;20.60;99.90;;;;;;5092415;28;19915;-72
2022/01/18 15:52:50;;;;;;;;;;;20.60;99.90;;;;;;5108006;28;20282;-72
2022/01/18 15:55:16;;;;;;;;;;;20.60;99.90;;;;;;5092495;28;19908;-72
2022/01/18 15:57:43;;;;;;;;;;;20.60;99.90;;;;;;5092289;28;19913;-72
2022/01/18 16:00:10;;;;;;;;;;;20.60;99.90;;;;;;5094822;28;19918;-72
2022/01/18 16:02:37;;;;;;;;;;;20.60;99.90;;;;;;5096694;28;19908;-72
2022/01/18 16:05:04;;;;;;;;;;;20.60;99.90;;;;;;5096341;28;19999;-72
2022/01/18 16:07:30;;;;;;;;;;;20.70;99.90;;;;;;5096396;28;19908;-72
2022/01/18 16:09:58;;;;;;;;;;;20.60;99.90;;;;;;5096005;28;19951;-72
2022/01/18 16:12:25;;;;;;;;;;;20.60;99.90;;;;;;5096363;28;20362;-71
2022/01/18 16:14:52;;;;;;;;;;;20.60;99.90;;;;;;5096353;28;19915;-72
2022/01/18 16:17:19;;;;;;;;;;;20.60;99.90;;;;;;5096254;28;19962;-72
2022/01/18 16:19:47;;;;;;;;;;;20.60;99.90;;;;;;5095873;28;19919;-72
2022/01/18 16:22:14;;;;;;;;;;;20.70;99.90;;;;;;5096288;28;20366;-71
2022/01/18 16:24:42;;;;;;;;;;;20.70;99.90;;;;;;5096112;28;20049;-72
2022/01/18 16:27:09;;;;;;;;;;;20.70;99.90;;;;;;5095919;28;19962;-72
2022/01/18 16:29:35;;;;;;;;;;;20.70;99.90;;;;;;5096183;28;20426;-72
2022/01/18 16:32:02;;;;;;;;;;;20.60;99.90;;;;;;5095738;28;20251;-71
2022/01/18 16:34:29;;;;;;;;;;;20.70;99.90;;;;;;5095636;28;19909;-71
2022/01/18 16:36:56;;;;;;;;;;;20.60;99.90;;;;;;5095517;28;19931;-71
2022/01/18 16:39:23;;;;;;;;;;;20.70;99.90;;;;;;5095824;28;19963;-72
2022/01/18 16:41:50;;;;;;;;;;;20.70;99.90;;;;;;5095540;28;19943;-72